Airfield :







YOU CAN JOIN US ON...

 
LOGIN :

Register | Disclaimer

   EN    FR    IT 

 









Legend :    VFR   Marginal VFR   IFR   Intensive IFR   Very Intensive IFR
Visi :
Ceiling :
>= 8 km
>= 3000ft
5 to 8 km
1000 to 3000 ft
1500m to 5 km
500 to 1000 ft
800 to 1500m
200 to 500 ft
< 800m
< 200 ft
Symbols :   Thunderstorms  Fog  Heavy snow  Heavy precipitations  Wind > 20 kt







- Airport Elevation : 266 ft
- IATA code : MHT


KMHT - Manchester

CURRENT METAR :
  • 201853Z 23007KT 190V260 10SM FEW050 BKN250 36/22 A2973 RMK AO2 SLP074 T03560217

EXPIRED METARs :
  • 201753Z VRB05KT 10SM SCT050 BKN250 35/21 A2975 RMK AO2 SLP081 T03500211 10356 20283 58014
  • 201653Z 27007KT 240V320 10SM SCT044 BKN300 33/21 A2977 RMK AO2 SLP087 T03330211

TAF KMHT
Valid from the 20 at 18:00 until the 21 at 18:00 UTC


201720Z 2018/2118 25006KT P6SM FEW050 SCT250
FM210000 VRB03KT P6SM FEW250
FM211400 28008G15KT P6SM FEW100 SCT250
KZBW FIR / North America



MET'MAP, your aeronautical weather chart ! - Copyright ORBIFLY December 2007 - Disclaimer

ORBIFLY MET'MAP TEAM :

Programming & Development : Alexandra Zaïnal
Concept & Development : Baudouin d'Aumeries
Co-Development & Prog : Marc-Olivier Méhu
Technical & hardware support : Manuel Goepfert

Contact : metmap@orbifly.com




SOURCES & CREDITS :

   NOAA